West Sand Lake, NY (12196)

8:49 AM EDT on July 06, 2015 (GMT -0400)
West Sand Lake | | Change Station
CLOSE
Current Station
Personal Weather Station
Location: East Greenbush, NY
Elevation: 645 ft
Nearby Weather Stations

Elev 645 ft 42.62 °N, 73.65 °W | Updated 6 seconds ago

Mostly Cloudy
Mostly Cloudy
69.4 °F
Feels Like 69.4 °F
N
0.0
Wind Variable Wind from WSW
Gusts 0.0 mph

Today
High -- | Low -- °F
--% Chance of Precip.
Yesterday
High -- | Low -- °F
Precip. -- in
5:23 AM 8:34 PM
Waning Gibbous, 76% visible
Pressure 30.16 in
Visibility 8.0 miles
Clouds Few 2000 ft
Few 23000 ft
Mostly Cloudy 26000 ft
Dew Point 66 °F
Humidity 90%
Rainfall 0.00 in
Snow Depth Not available.
UV 1 out of 12
Pollen 5.10 out of 12
Air Quality Not available.
Flu Activity Not available.
METAR KALB 061151Z 00000KT 8SM FEW020 FEW230 BKN260 18/16 A3016 RMK AO2 SLP212 T01830156 10183 20139 53000

More Conditions Fewer Conditions

Pressure 30.16 in
Visibility 8.0 miles
Clouds Few 2000 ft
Few 23000 ft
Mostly Cloudy 26000 ft
Dew Point 66 °F
Humidity 90%
Rainfall 0.00 in
Snow Depth Not available.
UV 1 out of 12
Pollen 5.10 out of 12
Air Quality Not available.
Flu Activity Not available.
METAR KALB 061151Z 00000KT 8SM FEW020 FEW230 BKN260 18/16 A3016 RMK AO2 SLP212 T01830156 10183 20139 53000

More Conditions Fewer Conditions

10-Day Weather Forecast

×

Almanac

Astronomy

Jul. 06, 2015 Rise Set
Actual Time
Civil Twilight
Nautical Twilight
Astronomical Twilight
Moon
Length of Visible Light
Length of Day
Tomorrow will be .
, % of the Moon is Illuminated

Today's Extremes

State Highs State Lows

Community

WunderPhotos

Upload Photos

1,835,548 photos uploaded!

WunderBlogs® & News

Nearby

Air Quality

  Air Quality AQ Index Pollutant
Not available.

Snow Depth

Station Depth Elevation

Earthquake Activity

City Distance Mag. Time & Date
Minimum magnitude displayed is 2.5.

Coastal Water Temperatures

Place Temperature

Stations

Nearby Weather Stations

Station Location Temp. Windchill Dew Point Humidity Wind Precip. Elev Updated Type